createdAt,value
2018-02-03T00:02:15.412Z,100092.97
2018-02-03T00:04:48.908Z,100093.86
2018-02-03T00:07:18.678Z,100094.33
2018-02-03T00:09:47.611Z,100083.24
2018-02-03T00:12:17.222Z,100086.77
2018-02-03T00:14:46.421Z,100081.41
2018-02-03T00:17:15.522Z,100088.19
2018-02-03T00:19:48.608Z,100094.19
2018-02-03T00:22:20.470Z,100098.13
2018-02-03T00:24:50.586Z,100096.20
2018-02-03T00:27:24.058Z,100094.37
2018-02-03T00:29:53.183Z,100096.09
2018-02-03T00:32:23.340Z,100096.05
2018-02-03T00:34:52.235Z,100103.18
2018-02-03T00:37:21.395Z,100090.44
2018-02-03T00:39:50.285Z,100086.56
2018-02-03T00:42:24.295Z,100083.12
2018-02-03T00:44:53.396Z,100078.48
2018-02-03T00:47:23.121Z,100081.09
2018-02-03T00:49:56.240Z,100076.52
2018-02-03T00:52:26.246Z,100075.59
2018-02-03T00:54:55.203Z,100070.65
2018-02-03T00:57:24.959Z,100070.33
2018-02-03T00:59:54.124Z,100078.02
2018-02-03T01:02:24.025Z,100080.97
2018-02-03T01:04:53.137Z,100083.25
2018-02-03T01:07:23.388Z,100090.11
2018-02-03T01:09:53.582Z,100091.38
2018-02-03T01:12:23.540Z,100088.92
2018-02-03T01:14:53.858Z,100085.17
2018-02-03T01:17:23.943Z,100083.56
2018-02-03T01:19:54.587Z,100079.84
2018-02-03T01:22:24.899Z,100075.51
2018-02-03T01:24:53.787Z,100067.00
2018-02-03T01:27:25.279Z,100057.37
2018-02-03T01:29:54.336Z,100048.98
2018-02-03T01:32:24.353Z,100051.69
2018-02-03T01:34:55.122Z,100047.14
2018-02-03T01:37:24.231Z,100040.87
2018-02-03T01:39:53.177Z,100046.54
2018-02-03T01:42:22.308Z,100045.27
2018-02-03T01:44:52.168Z,100049.47
2018-02-03T01:47:22.005Z,100042.77
2018-02-03T01:49:52.842Z,100049.98
2018-02-03T01:52:21.817Z,100051.62
2018-02-03T01:54:50.830Z,100054.20
2018-02-03T01:57:23.113Z,100037.63
2018-02-03T01:59:52.151Z,100031.66
2018-02-03T02:02:21.091Z,100033.00
2018-02-03T02:04:50.182Z,100024.45
2018-02-03T02:07:19.103Z,100014.23
2018-02-03T02:09:48.756Z,100019.03
2018-02-03T02:12:17.873Z,100010.97
2018-02-03T02:14:47.723Z,100013.11
2018-02-03T02:17:17.409Z,100015.39
2018-02-03T02:19:50.083Z,100020.04
2018-02-03T02:22:21.831Z,100018.86
2018-02-03T02:24:53.500Z,100024.33
2018-02-03T02:27:24.141Z,100020.48
2018-02-03T02:30:00.923Z,100016.52
2018-02-03T02:32:30.208Z,100020.01
2018-02-03T02:34:59.973Z,100031.11
2018-02-03T02:37:29.763Z,100042.17
2018-02-03T02:40:00.570Z,100048.11
2018-02-03T02:42:35.064Z,100036.20
2018-02-03T02:45:05.112Z,100031.55
2018-02-03T02:47:36.267Z,100015.51
2018-02-03T02:50:07.731Z,100015.83
2018-02-03T02:52:36.802Z,100010.72
2018-02-03T02:55:07.742Z,100000.84
2018-02-03T02:57:36.637Z,99997.48
2018-02-03T03:00:08.587Z,100002.18
2018-02-03T03:02:37.683Z,100002.22
2018-02-03T03:05:06.788Z,100008.53
2018-02-03T03:07:38.341Z,100006.81
2018-02-03T03:10:07.376Z,99981.03
2018-02-03T03:12:37.247Z,99968.72
2018-02-03T03:15:06.172Z,99963.95
2018-02-03T03:17:36.097Z,99950.89
2018-02-03T03:20:05.667Z,99953.59
2018-02-03T03:22:35.106Z,99944.80
2018-02-03T03:25:04.671Z,99949.41
2018-02-03T03:27:46.370Z,99946.98
2018-02-03T03:30:16.085Z,99955.03
2018-02-03T03:32:45.075Z,99948.28
2018-02-03T03:35:15.257Z,99946.50
2018-02-03T03:37:45.109Z,99928.72
2018-02-03T03:40:14.104Z,99943.84
2018-02-03T03:42:43.789Z,99937.41
2018-02-03T03:45:13.729Z,99945.38
2018-02-03T03:47:43.339Z,99947.50
2018-02-03T03:50:12.946Z,99952.05
2018-02-03T03:52:43.180Z,99951.20
2018-02-03T03:55:12.161Z,99956.70
2018-02-03T03:57:41.288Z,99973.01
2018-02-03T04:00:11.108Z,99981.19
2018-02-03T04:02:40.994Z,99978.25
2018-02-03T04:05:10.269Z,99985.52
2018-02-03T04:07:40.166Z,99987.59
2018-02-03T04:10:09.916Z,99996.06
2018-02-03T04:12:39.099Z,99992.17
2018-02-03T04:15:09.339Z,99984.12
2018-02-03T04:17:38.464Z,99986.58
2018-02-03T04:20:08.961Z,99993.84
2018-02-03T04:22:38.941Z,99987.48
2018-02-03T04:25:08.177Z,99978.09
2018-02-03T04:27:39.252Z,99974.27
2018-02-03T04:30:09.233Z,99967.44
2018-02-03T04:32:38.957Z,99969.97
2018-02-03T04:35:23.436Z,99970.36
2018-02-03T04:37:52.541Z,99963.66
2018-02-03T04:40:29.420Z,99966.70
2018-02-03T04:42:58.616Z,99973.86
2018-02-03T04:45:28.132Z,99976.36
2018-02-03T04:47:58.335Z,99967.09
2018-02-03T04:50:27.525Z,99967.84
2018-02-03T04:52:56.652Z,99965.27
2018-02-03T04:55:30.709Z,99959.27
2018-02-03T04:57:59.515Z,99955.34
2018-02-03T05:00:28.375Z,99967.64
2018-02-03T05:02:58.560Z,99973.13
2018-02-03T05:05:27.516Z,99962.52
2018-02-03T05:07:58.248Z,99952.33
2018-02-03T05:10:27.238Z,99950.64
2018-02-03T05:12:56.239Z,99945.20
2018-02-03T05:15:26.024Z,99949.19
2018-02-03T05:17:55.895Z,99952.52
2018-02-03T05:20:27.513Z,99950.69
2018-02-03T05:22:58.252Z,99948.13
2018-02-03T05:25:27.348Z,99955.00
2018-02-03T05:27:56.595Z,99953.94
2018-02-03T05:30:27.497Z,99954.81
2018-02-03T05:32:56.586Z,99950.02
2018-02-03T05:35:25.580Z,99956.72
2018-02-03T05:37:54.987Z,99967.72
2018-02-03T05:40:24.388Z,99963.77
2018-02-03T05:42:53.482Z,99950.08
2018-02-03T05:45:26.168Z,99953.79
2018-02-03T05:47:56.897Z,99947.78
2018-02-03T05:50:25.933Z,99948.66
2018-02-03T05:52:56.960Z,99947.73
2018-02-03T05:55:26.124Z,99946.69
2018-02-03T05:57:56.611Z,99934.95
2018-02-03T06:00:26.471Z,99930.20
2018-02-03T06:02:58.310Z,99939.31
2018-02-03T06:05:27.685Z,99940.55
2018-02-03T06:07:56.730Z,99941.73
2018-02-03T06:10:25.669Z,99940.80
2018-02-03T06:12:55.541Z,99942.38
2018-02-03T06:15:25.485Z,99946.59
2018-02-03T06:17:54.654Z,99938.88
2018-02-03T06:20:24.458Z,99934.27
2018-02-03T06:22:53.561Z,99937.49
2018-02-03T06:25:22.739Z,99933.84
2018-02-03T06:27:51.858Z,99938.69
2018-02-03T06:30:21.669Z,99921.29
2018-02-03T06:32:50.765Z,99929.62
2018-02-03T06:35:19.893Z,99933.25
2018-02-03T06:37:49.398Z,99941.66
2018-02-03T06:40:19.825Z,99941.80
2018-02-03T06:42:50.533Z,99929.89
2018-02-03T06:45:20.084Z,99916.67
2018-02-03T06:47:49.164Z,99923.55
2018-02-03T06:50:18.259Z,99932.71
2018-02-03T06:52:47.222Z,99932.77
2018-02-03T06:55:17.442Z,99944.11
2018-02-03T06:57:46.538Z,99940.03
2018-02-03T07:00:15.782Z,99943.96
2018-02-03T07:02:45.551Z,99939.05
2018-02-03T07:05:15.469Z,99938.44
2018-02-03T07:07:45.356Z,99937.18
2018-02-03T07:10:15.297Z,99941.39
2018-02-03T07:12:44.497Z,99944.66
2018-02-03T07:15:13.696Z,99949.39
2018-02-03T07:17:42.687Z,99940.33
2018-02-03T07:20:11.787Z,99939.39
2018-02-03T07:22:44.670Z,99933.96
2018-02-03T07:25:17.200Z,99911.01
2018-02-03T07:27:47.064Z,99917.83
2018-02-03T07:30:17.010Z,99913.96
2018-02-03T07:32:46.959Z,99906.08
2018-02-03T07:35:16.800Z,99905.95
2018-02-03T07:37:46.031Z,99909.82
2018-02-03T07:40:20.841Z,99907.57
2018-02-03T07:42:50.020Z,99899.33
2018-02-03T07:45:19.239Z,99899.98
2018-02-03T07:47:50.095Z,99899.56
2018-02-03T07:50:19.920Z,99888.13
2018-02-03T07:52:48.993Z,99894.80
2018-02-03T07:55:18.908Z,99896.91
2018-02-03T07:57:49.398Z,99890.48
2018-02-03T08:00:22.115Z,99882.09
2018-02-03T08:02:51.210Z,99876.12
2018-02-03T08:05:21.059Z,99876.06
2018-02-03T08:07:51.968Z,99861.84
2018-02-03T08:10:24.368Z,99850.20
2018-02-03T08:12:55.089Z,99845.08
2018-02-03T08:15:24.699Z,99850.34
2018-02-03T08:17:53.708Z,99850.64
2018-02-03T08:20:22.969Z,99843.26
2018-02-03T08:22:52.216Z,99852.63
2018-02-03T08:25:22.526Z,99854.48
2018-02-03T08:27:51.743Z,99845.09
2018-02-03T08:30:21.601Z,99854.19
2018-02-03T08:32:50.637Z,99841.78
2018-02-03T08:35:20.566Z,99838.39
2018-02-03T08:37:50.523Z,99831.73
2018-02-03T08:40:19.496Z,99830.52
2018-02-03T08:42:51.131Z,99823.96
2018-02-03T08:45:20.086Z,99824.56
2018-02-03T08:47:50.033Z,99824.11
2018-02-03T08:50:21.860Z,99812.36
2018-02-03T08:52:51.570Z,99810.72
2018-02-03T08:55:20.777Z,99812.26
2018-02-03T08:57:50.719Z,99807.57
2018-02-03T09:00:19.785Z,99818.77
2018-02-03T09:02:49.699Z,99800.83
2018-02-03T09:05:23.301Z,99805.64
2018-02-03T09:07:52.426Z,99800.12
2018-02-03T09:10:21.629Z,99801.02
2018-02-03T09:12:51.564Z,99803.52
2018-02-03T09:15:20.535Z,99792.98
2018-02-03T09:17:49.486Z,99802.04
2018-02-03T09:20:18.924Z,99802.71
2018-02-03T09:22:49.737Z,99803.86
2018-02-03T09:25:22.209Z,99792.61
2018-02-03T09:27:51.514Z,99795.28
2018-02-03T09:30:21.429Z,99782.19
2018-02-03T09:32:54.923Z,99776.88
2018-02-03T09:35:24.244Z,99792.20
2018-02-03T09:37:53.533Z,99781.51
2018-02-03T09:40:26.007Z,99779.07
2018-02-03T09:42:55.207Z,99776.62
2018-02-03T09:45:25.632Z,99761.67
2018-02-03T09:47:56.470Z,99765.30
2018-02-03T09:50:25.569Z,99756.50
2018-02-03T09:52:54.671Z,99749.70
2018-02-03T09:55:26.438Z,99753.30
2018-02-03T09:57:55.418Z,99730.73
2018-02-03T10:00:25.027Z,99718.47
2018-02-03T10:02:54.226Z,99698.29
2018-02-03T10:05:23.317Z,99685.60
2018-02-03T10:07:52.317Z,99710.08
2018-02-03T10:10:21.436Z,99723.52
2018-02-03T10:12:50.306Z,99719.95
2018-02-03T10:15:21.424Z,99709.48
2018-02-03T10:17:54.637Z,99707.12
2018-02-03T10:20:24.558Z,99699.20
2018-02-03T10:22:58.696Z,99698.56
2018-02-03T10:25:27.865Z,99711.42
2018-02-03T10:27:56.958Z,99702.82
2018-02-03T10:30:26.165Z,99709.31
2018-02-03T10:32:55.261Z,99709.44
2018-02-03T10:35:28.187Z,99701.84
2018-02-03T10:37:57.134Z,99690.25
2018-02-03T10:40:26.538Z,99710.03
2018-02-03T10:42:55.940Z,99724.09
2018-02-03T10:45:24.937Z,99715.00
2018-02-03T10:47:54.084Z,99702.86
2018-02-03T10:50:24.185Z,99698.20
2018-02-03T10:52:54.009Z,99707.38
2018-02-03T10:55:23.809Z,99691.95
2018-02-03T10:57:58.132Z,99681.02
2018-02-03T11:00:33.544Z,99663.72
2018-02-03T11:03:05.614Z,99646.90
2018-02-03T11:05:34.662Z,99641.17
2018-02-03T11:08:03.687Z,99651.78
2018-02-03T11:10:33.412Z,99648.97
2018-02-03T11:13:02.333Z,99661.26
2018-02-03T11:15:32.207Z,99655.63
2018-02-03T11:18:01.521Z,99660.98
2018-02-03T11:20:31.541Z,99648.25
2018-02-03T11:23:01.431Z,99651.51
2018-02-03T11:25:31.601Z,99647.34
2018-02-03T11:28:01.180Z,99618.22
2018-02-03T11:30:34.287Z,99625.51
2018-02-03T11:33:03.273Z,99627.77
2018-02-03T11:35:32.387Z,99616.94
2018-02-03T11:38:01.451Z,99619.71
2018-02-03T11:40:30.967Z,99629.30
2018-02-03T11:43:01.549Z,99623.70
2018-02-03T11:45:31.341Z,99627.49
2018-02-03T11:48:00.435Z,99620.19
2018-02-03T11:50:30.306Z,99627.36
2018-02-03T11:53:01.949Z,99609.98
2018-02-03T11:55:30.898Z,99618.03
2018-02-03T11:58:00.008Z,99608.00
2018-02-03T12:00:29.836Z,99595.11
2018-02-03T12:02:59.388Z,99593.28
2018-02-03T12:05:30.350Z,99577.86
2018-02-03T12:08:00.169Z,99559.02
2018-02-03T12:10:30.090Z,99557.67
2018-02-03T12:13:01.320Z,99563.56
2018-02-03T12:15:30.295Z,99555.39
2018-02-03T12:18:00.820Z,99560.17
2018-02-03T12:20:29.800Z,99582.86
2018-02-03T12:22:59.764Z,99570.26
2018-02-03T12:25:28.806Z,99562.56
2018-02-03T12:27:58.614Z,99552.59
2018-02-03T12:30:27.672Z,99551.73
2018-02-03T12:32:57.634Z,99548.88
2018-02-03T12:35:28.602Z,99547.69
2018-02-03T12:37:57.799Z,99544.97
2018-02-03T12:40:26.891Z,99522.55
2018-02-03T12:42:57.221Z,99524.34
2018-02-03T12:45:27.079Z,99532.24
2018-02-03T12:47:56.668Z,99531.92
2018-02-03T12:50:27.536Z,99566.77
2018-02-03T12:52:56.620Z,99583.58
2018-02-03T12:55:26.795Z,99580.69
2018-02-03T12:57:55.998Z,99569.33
2018-02-03T13:00:26.727Z,99563.95
2018-02-03T13:02:56.550Z,99561.41
2018-02-03T13:05:25.886Z,99550.27
2018-02-03T13:07:56.065Z,99534.58
2018-02-03T13:10:26.156Z,99515.13
2018-02-03T13:12:55.212Z,99493.50
2018-02-03T13:15:25.126Z,99478.73
2018-02-03T13:17:55.145Z,99457.59
2018-02-03T13:20:25.024Z,99458.46
2018-02-03T13:22:55.119Z,99459.24
2018-02-03T13:25:26.534Z,99451.69
2018-02-03T13:27:55.589Z,99469.69
2018-02-03T13:30:24.690Z,99480.94
2018-02-03T13:32:54.778Z,99459.38
2018-02-03T13:35:24.724Z,99464.98
2018-02-03T13:37:53.718Z,99439.37
2018-02-03T13:40:23.736Z,99456.95
2018-02-03T13:42:53.036Z,99461.39
2018-02-03T13:45:22.413Z,99497.03
2018-02-03T13:47:53.278Z,99484.00
2018-02-03T13:50:22.524Z,99457.65
2018-02-03T13:52:52.569Z,99452.66
2018-02-03T13:55:26.000Z,99444.36
2018-02-03T13:57:55.128Z,99429.31
2018-02-03T14:00:25.129Z,99412.91
2018-02-03T14:02:55.193Z,99403.36
2018-02-03T14:05:24.327Z,99396.84
2018-02-03T14:07:54.888Z,99393.96
2018-02-03T14:10:25.179Z,99394.83
2018-02-03T14:12:56.112Z,99394.05
2018-02-03T14:15:27.108Z,99392.17
2018-02-03T14:17:58.030Z,99404.02
2018-02-03T14:20:27.020Z,99388.74
2018-02-03T14:23:00.388Z,99396.94
2018-02-03T14:25:29.792Z,99385.80
2018-02-03T14:27:59.666Z,99398.86
2018-02-03T14:30:29.805Z,99394.69
2018-02-03T14:33:11.589Z,99401.64
2018-02-03T14:35:41.872Z,99405.66
2018-02-03T14:38:11.757Z,99387.90
2018-02-03T14:40:43.835Z,99410.73
2018-02-03T14:43:13.000Z,99404.08
2018-02-03T14:45:42.986Z,99418.78
2018-02-03T14:48:11.986Z,99409.34
2018-02-03T14:50:42.278Z,99415.03
2018-02-03T14:53:14.734Z,99404.83
2018-02-03T14:55:43.835Z,99406.11
2018-02-03T14:58:15.859Z,99402.66
2018-02-03T15:00:45.928Z,99407.45
2018-02-03T15:03:14.918Z,99409.83
2018-02-03T15:05:44.208Z,99418.34
2018-02-03T15:08:13.223Z,99417.92
2018-02-03T15:10:43.330Z,99416.85
2018-02-03T15:13:12.283Z,99416.85
2018-02-03T15:15:41.377Z,99412.23
2018-02-03T15:18:10.963Z,99420.05
2018-02-03T15:20:40.189Z,99416.18
2018-02-03T15:23:09.043Z,99432.50
2018-02-03T15:25:37.914Z,99448.98
2018-02-03T15:28:08.156Z,99462.11
2018-02-03T15:30:39.112Z,99473.41
2018-02-03T15:33:09.771Z,99463.17
2018-02-03T15:35:39.707Z,99459.63
2018-02-03T15:38:08.803Z,99440.78
2018-02-03T15:40:37.967Z,99457.34
2018-02-03T15:43:13.858Z,99458.52
2018-02-03T15:45:43.044Z,99457.59
2018-02-03T15:48:13.905Z,99455.47
2018-02-03T15:50:43.981Z,99460.46
2018-02-03T15:53:13.526Z,99456.77
2018-02-03T15:55:44.356Z,99478.85
2018-02-03T15:58:13.496Z,99458.30
2018-02-03T16:00:43.271Z,99460.54
2018-02-03T16:03:14.061Z,99455.09
2018-02-03T16:05:44.590Z,99455.85
2018-02-03T16:08:13.726Z,99477.52
2018-02-03T16:10:42.824Z,99476.92
2018-02-03T16:13:13.176Z,99482.34
2018-02-03T16:15:42.615Z,99482.54
2018-02-03T16:18:12.571Z,99479.47
2018-02-03T16:20:43.137Z,99465.19
2018-02-03T16:25:46.515Z,99446.05
2018-02-03T16:28:16.635Z,99434.05
2018-02-03T16:30:45.954Z,99434.97
2018-02-03T16:33:19.778Z,99445.23
2018-02-03T16:35:48.738Z,99441.23
2018-02-03T16:38:17.834Z,99443.08
2018-02-03T16:40:47.659Z,99453.16
2018-02-03T16:43:17.270Z,99440.13
2018-02-03T16:45:47.681Z,99440.19
2018-02-03T16:48:20.296Z,99446.86
2018-02-03T16:50:50.741Z,99460.37
2018-02-03T16:53:19.958Z,99455.55
2018-02-03T16:55:49.524Z,99444.44
2018-02-03T16:58:18.730Z,99438.96
2018-02-03T17:00:47.862Z,99439.59
2018-02-03T17:03:18.732Z,99431.88
2018-02-03T17:05:49.571Z,99431.62
2018-02-03T17:08:18.496Z,99452.42
2018-02-03T17:10:50.413Z,99463.20
2018-02-03T17:13:20.300Z,99463.53
2018-02-03T17:15:49.377Z,99466.27
2018-02-03T17:18:20.942Z,99472.55
2018-02-03T17:20:50.241Z,99476.48
2018-02-03T17:23:19.360Z,99460.97
2018-02-03T17:25:50.291Z,99455.79
2018-02-03T17:28:19.284Z,99418.76
2018-02-03T17:30:48.951Z,99435.55
2018-02-03T17:33:19.216Z,99426.17
2018-02-03T17:35:49.026Z,99431.53
2018-02-03T17:38:24.900Z,99430.35
2018-02-03T17:40:54.173Z,99422.89
2018-02-03T17:43:23.270Z,99419.98
2018-02-03T17:45:57.840Z,99430.30
2018-02-03T17:48:28.700Z,99422.26
2018-02-03T17:50:58.100Z,99428.75
2018-02-03T17:53:28.163Z,99417.36
2018-02-03T17:56:03.725Z,99419.41
2018-02-03T17:58:37.164Z,99412.17
2018-02-03T18:01:06.466Z,99410.80
2018-02-03T18:03:35.757Z,99420.11
2018-02-03T18:06:06.987Z,99433.72
2018-02-03T18:08:35.959Z,99418.09
2018-02-03T18:11:04.834Z,99427.16
2018-02-03T18:13:34.039Z,99441.95
2018-02-03T18:16:03.327Z,99441.50
2018-02-03T18:18:32.522Z,99446.50
2018-02-03T18:21:05.079Z,99449.73
2018-02-03T18:23:34.997Z,99453.94
2018-02-03T18:26:04.267Z,99446.86
2018-02-03T18:28:41.841Z,99448.77
2018-02-03T18:31:10.762Z,99437.66
2018-02-03T18:33:40.514Z,99440.38
2018-02-03T18:36:11.071Z,99444.55
2018-02-03T18:38:40.011Z,99440.51
2018-02-03T18:41:08.898Z,99442.41
2018-02-03T18:43:38.790Z,99446.02
2018-02-03T18:46:07.690Z,99440.80
2018-02-03T18:48:36.681Z,99446.02
2018-02-03T18:51:09.245Z,99441.19
2018-02-03T18:53:38.080Z,99440.06
2018-02-03T18:56:06.906Z,99445.27
2018-02-03T18:58:37.475Z,99430.45
2018-02-03T19:01:09.454Z,99414.71
2018-02-03T19:03:39.480Z,99408.46
2018-02-03T19:06:08.783Z,99401.65
2018-02-03T19:08:39.325Z,99394.24
2018-02-03T19:11:09.113Z,99391.69
2018-02-03T19:13:38.214Z,99398.91
2018-02-03T19:16:08.133Z,99390.44
2018-02-03T19:18:38.098Z,99391.71
2018-02-03T19:21:08.368Z,99382.73
2018-02-03T19:23:41.258Z,99374.13
2018-02-03T19:26:11.204Z,99377.13
2018-02-03T19:28:40.108Z,99358.84
2018-02-03T19:31:10.080Z,99365.83
2018-02-03T19:33:39.177Z,99370.20
2018-02-03T19:36:12.503Z,99382.31
2018-02-03T19:38:41.459Z,99387.34
2018-02-03T19:41:12.522Z,99389.13
2018-02-03T19:43:44.071Z,99378.80
2018-02-03T19:46:14.662Z,99377.52
2018-02-03T19:48:43.861Z,99377.61
2018-02-03T19:51:15.521Z,99381.16
2018-02-03T19:53:45.310Z,99382.02
2018-02-03T19:56:17.306Z,99370.71
2018-02-03T19:58:46.755Z,99371.77
2018-02-03T20:01:15.964Z,99374.47
2018-02-03T20:03:45.891Z,99371.30
2018-02-03T20:06:15.765Z,99367.13
2018-02-03T20:08:47.880Z,99361.09
2018-02-03T20:11:17.091Z,99356.13
2018-02-03T20:13:49.154Z,99363.13
2018-02-03T20:16:19.145Z,99362.50
2018-02-03T20:18:48.376Z,99377.41
2018-02-03T20:21:21.889Z,99375.63
2018-02-03T20:23:51.895Z,99371.55
2018-02-03T20:26:22.934Z,99365.06
2018-02-03T20:28:54.781Z,99367.59
2018-02-03T20:31:23.875Z,99369.99
2018-02-03T20:33:55.075Z,99369.37
2018-02-03T20:36:24.495Z,99365.42
2018-02-03T20:38:53.785Z,99366.02
2018-02-03T20:41:23.020Z,99345.80
2018-02-03T20:43:52.288Z,99353.20
2018-02-03T20:46:23.022Z,99337.05
2018-02-03T20:48:52.528Z,99335.86
2018-02-03T20:51:24.287Z,99333.39
2018-02-03T20:53:54.614Z,99349.56
2018-02-03T20:56:24.165Z,99359.64
2018-02-03T20:58:55.976Z,99375.97
2018-02-03T21:01:27.581Z,99389.41
2018-02-03T21:03:59.351Z,99396.83
2018-02-03T21:06:29.117Z,99395.70
2018-02-03T21:08:58.903Z,99392.91
2018-02-03T21:11:31.401Z,99387.70
2018-02-03T21:14:00.480Z,99380.53
2018-02-03T21:16:29.536Z,99394.75
2018-02-03T21:18:58.957Z,99407.24
2018-02-03T21:21:28.061Z,99411.16
2018-02-03T21:24:01.095Z,99415.23
2018-02-03T21:26:30.160Z,99410.09
2018-02-03T21:28:59.154Z,99414.14
2018-02-03T21:31:30.615Z,99403.52
2018-02-03T21:34:00.419Z,99397.51
2018-02-03T21:36:38.101Z,99388.52
2018-02-03T21:39:13.084Z,99388.24
2018-02-03T21:41:42.346Z,99372.86
2018-02-03T21:44:12.064Z,99373.73
2018-02-03T21:46:43.819Z,99373.56
2018-02-03T21:49:12.915Z,99373.92
2018-02-03T21:51:42.195Z,99380.58
2018-02-03T21:54:11.344Z,99377.05
2018-02-03T21:56:40.327Z,99385.74
2018-02-03T21:59:11.053Z,99392.00
2018-02-03T22:01:41.783Z,99385.92
2018-02-03T22:04:11.812Z,99392.04
2018-02-03T22:06:40.768Z,99385.95
2018-02-03T22:09:10.540Z,99382.82
2018-02-03T22:11:39.702Z,99389.16
2018-02-03T22:14:09.594Z,99385.22
2018-02-03T22:16:40.654Z,99394.79
2018-02-03T22:19:11.692Z,99389.31
2018-02-03T22:21:40.827Z,99389.12
2018-02-03T22:24:11.503Z,99383.07
2018-02-03T22:26:41.453Z,99378.66
2018-02-03T22:29:10.542Z,99380.29
2018-02-03T22:31:43.154Z,99380.13
2018-02-03T22:34:12.317Z,99378.08
2018-02-03T22:36:41.310Z,99379.05
2018-02-03T22:39:13.990Z,99377.95
2018-02-03T22:41:44.801Z,99385.35
2018-02-03T22:44:13.720Z,99388.30
2018-02-03T22:46:42.693Z,99380.97
2018-02-03T22:49:12.063Z,99380.01
2018-02-03T22:51:41.826Z,99376.91
2018-02-03T22:54:13.730Z,99370.95
2018-02-03T22:56:42.692Z,99376.36
2018-02-03T22:59:11.961Z,99374.38
2018-02-03T23:01:41.795Z,99361.25
2018-02-03T23:04:11.405Z,99341.82
2018-02-03T23:06:40.739Z,99340.86
2018-02-03T23:09:09.801Z,99327.00
2018-02-03T23:11:40.785Z,99328.32
2018-02-03T23:14:09.734Z,99332.51
2018-02-03T23:16:40.779Z,99342.72
2018-02-03T23:19:11.317Z,99349.69
2018-02-03T23:21:48.084Z,99356.31
2018-02-03T23:24:17.193Z,99368.86
2018-02-03T23:26:50.474Z,99367.96
2018-02-03T23:29:19.569Z,99356.98
2018-02-03T23:31:48.665Z,99362.70
2018-02-03T23:34:20.197Z,99356.38
2018-02-03T23:36:50.033Z,99348.14
2018-02-03T23:39:19.129Z,99346.51
2018-02-03T23:41:49.658Z,99349.00
2018-02-03T23:44:18.642Z,99342.99
2018-02-03T23:46:47.656Z,99322.01
2018-02-03T23:49:18.640Z,99328.41
2018-02-03T23:51:47.684Z,99343.03
2018-02-03T23:54:17.905Z,99346.45
2018-02-03T23:56:53.438Z,99336.50
2018-02-03T23:59:22.551Z,99336.38
